Time;durP1;ratioP1;P1;durP2;ratioP2;P2;SDS_P1;SDS_P2;PMS_P1;PMS_P2;Temp;Humidity;BMP_temperature;BMP_pressure;BME280_temperature;BME280_humidity;BME280_pressure;Samples;Min_cycle;Max_cycle;Signal;HPM_P1;HPM_P2
2023/05/31 00:02:22;;;;;;;14.57;13.07;;;23.90;68.70;;;;;;4832186;54;21080;-36
2023/05/31 00:07:23;;;;;;;15.32;13.73;;;23.90;68.80;;;;;;4805200;54;20995;-36
2023/05/31 00:12:25;;;;;;;15.30;13.77;;;23.90;68.70;;;;;;4900634;54;21055;-34
2023/05/31 00:17:26;;;;;;;14.18;12.68;;;23.90;68.70;;;;;;4818709;54;21043;-35
2023/05/31 00:22:27;;;;;;;15.05;13.50;;;23.90;68.70;;;;;;4872839;54;21048;-34
2023/05/31 00:27:28;;;;;;;15.00;13.40;;;23.90;68.70;;;;;;4910030;54;21072;-33
2023/05/31 00:32:28;;;;;;;14.32;12.90;;;23.90;68.80;;;;;;4806558;54;21473;-36
2023/05/31 00:37:32;;;;;;;13.82;12.37;;;23.90;68.80;;;;;;4869669;54;21096;-34
2023/05/31 00:42:33;;;;;;;14.60;13.07;;;23.90;68.80;;;;;;4796353;58;21538;-32
2023/05/31 00:47:38;;;;;;;15.18;13.45;;;23.90;68.70;;;;;;4840305;54;21142;-36
2023/05/31 00:52:39;;;;;;;15.23;13.45;;;23.90;68.80;;;;;;4818076;54;21020;-34
2023/05/31 00:57:41;;;;;;;13.48;12.15;;;23.90;68.80;;;;;;4868937;54;21019;-34
2023/05/31 01:02:43;;;;;;;13.32;11.98;;;23.90;68.80;;;;;;4839640;54;21023;-32
2023/05/31 01:07:45;;;;;;;14.20;12.80;;;23.90;68.70;;;;;;4796476;58;21442;-33
2023/05/31 01:13:10;;;;;;;13.75;12.45;;;23.90;68.70;;;;;;4816944;54;21115;-35
2023/05/31 01:18:56;;;;;;;15.07;13.50;;;23.90;68.70;;;;;;4813397;54;21016;-34
2023/05/31 01:24:31;;;;;;;13.75;12.25;;;23.90;68.70;;;;;;4807536;54;21542;-33
2023/05/31 01:29:35;;;;;;;13.52;12.07;;;23.90;68.80;;;;;;4799364;54;21008;-35
2023/05/31 01:34:36;;;;;;;14.05;12.52;;;23.90;68.80;;;;;;4796040;58;21651;-35
2023/05/31 01:39:37;;;;;;;13.48;12.07;;;23.90;68.80;;;;;;4828451;54;21011;-32
2023/05/31 01:44:40;;;;;;;13.07;11.65;;;23.90;68.80;;;;;;4816965;54;21012;-34
2023/05/31 01:49:42;;;;;;;12.80;11.50;;;23.90;68.80;;;;;;4848498;54;21052;-33
2023/05/31 01:54:42;;;;;;;13.45;12.15;;;23.90;68.80;;;;;;4874125;54;21060;-35
2023/05/31 01:59:44;;;;;;;12.52;11.25;;;23.90;68.80;;;;;;4824031;54;21084;-34
2023/05/31 02:04:45;;;;;;;12.13;10.93;;;23.90;68.80;;;;;;4857679;54;21474;-35
2023/05/31 02:09:46;;;;;;;12.43;11.23;;;23.90;68.80;;;;;;4822037;54;21060;-36
2023/05/31 02:14:47;;;;;;;11.90;10.70;;;23.90;68.80;;;;;;4796501;58;21151;-35
2023/05/31 02:19:48;;;;;;;12.43;11.12;;;23.80;68.70;;;;;;4830153;54;21099;-32
2023/05/31 02:24:49;;;;;;;12.77;11.48;;;23.80;68.80;;;;;;4849002;54;21550;-33
2023/05/31 02:29:50;;;;;;;11.93;10.82;;;23.80;68.70;;;;;;4815453;54;20996;-33
2023/05/31 02:34:50;;;;;;;12.75;11.48;;;23.80;68.70;;;;;;4805100;54;21040;-31
2023/05/31 02:39:53;;;;;;;12.25;11.05;;;23.90;68.80;;;;;;4795943;58;20984;-36
2023/05/31 02:44:55;;;;;;;11.27;10.18;;;23.80;68.70;;;;;;4919913;54;21586;-33
2023/05/31 02:50:00;;;;;;;12.13;10.93;;;23.80;68.70;;;;;;4858080;54;20996;-34
2023/05/31 02:55:01;;;;;;;11.93;10.63;;;23.80;68.70;;;;;;4853161;54;21063;-35
2023/05/31 03:00:21;;;;;;;11.10;10.00;;;23.80;68.80;;;;;;4813923;54;21028;-36
2023/05/31 03:05:23;;;;;;;11.38;10.20;;;23.80;68.70;;;;;;4806347;54;21039;-36
2023/05/31 03:10:24;;;;;;;11.32;10.10;;;23.80;68.70;;;;;;4796872;58;21482;-32
2023/05/31 03:15:25;;;;;;;10.82;9.80;;;23.80;68.70;;;;;;4836757;54;21608;-35
2023/05/31 03:20:26;;;;;;;11.60;10.38;;;23.80;68.70;;;;;;4795487;58;21147;-35
2023/05/31 03:25:27;;;;;;;11.38;10.27;;;23.80;68.70;;;;;;4796872;54;21071;-39
2023/05/31 03:30:28;;;;;;;11.07;9.98;;;23.80;68.70;;;;;;4887729;54;20984;-38
2023/05/31 03:35:29;;;;;;;11.48;10.45;;;23.80;68.80;;;;;;4796375;58;21550;-31
2023/05/31 03:40:30;;;;;;;10.55;9.50;;;23.80;68.80;;;;;;4956104;54;21530;-29
2023/05/31 03:45:31;;;;;;;10.75;9.68;;;23.80;68.90;;;;;;4849319;54;21052;-34
2023/05/31 03:50:32;;;;;;;10.38;9.27;;;23.80;68.90;;;;;;4814577;54;21442;-33
2023/05/31 03:55:33;;;;;;;11.02;9.93;;;23.80;68.90;;;;;;4796095;58;21079;-38
2023/05/31 04:00:34;;;;;;;10.43;9.38;;;23.80;68.90;;;;;;4810713;54;21012;-38
2023/05/31 04:05:35;;;;;;;10.80;9.70;;;23.80;68.90;;;;;;4796778;58;21455;-31
2023/05/31 04:10:36;;;;;;;10.45;9.45;;;23.80;68.90;;;;;;4814072;54;21008;-35
2023/05/31 04:15:36;;;;;;;11.07;9.98;;;23.80;68.80;;;;;;4803259;54;21032;-36
2023/05/31 04:20:37;;;;;;;9.85;8.95;;;23.80;68.80;;;;;;4808537;54;21016;-34
2023/05/31 04:25:38;;;;;;;9.25;8.43;;;23.80;68.80;;;;;;4827776;54;21475;-31
2023/05/31 04:30:39;;;;;;;9.95;8.95;;;23.80;68.80;;;;;;4845733;54;21004;-34
2023/05/31 04:35:40;;;;;;;10.73;9.73;;;23.80;68.70;;;;;;4829606;54;21514;-34
2023/05/31 04:40:42;;;;;;;10.18;9.18;;;23.80;68.80;;;;;;4888684;54;21518;-34
2023/05/31 04:45:42;;;;;;;10.35;9.35;;;23.80;68.70;;;;;;4836655;54;21450;-33
2023/05/31 04:50:43;;;;;;;9.93;8.93;;;23.80;68.70;;;;;;4824010;54;21016;-33
2023/05/31 04:55:44;;;;;;;9.80;8.90;;;23.80;68.80;;;;;;4821411;54;21107;-35
2023/05/31 05:00:46;;;;;;;10.05;8.52;;;23.80;68.70;;;;;;4834697;54;21485;-37
2023/05/31 05:05:47;;;;;;;10.68;9.57;;;23.80;68.70;;;;;;4845482;54;21050;-36
2023/05/31 05:10:49;;;;;;;10.05;8.95;;;23.80;68.70;;;;;;4811326;54;21068;-34
2023/05/31 05:15:49;;;;;;;10.00;8.93;;;23.80;68.70;;;;;;4796017;55;21039;-34
2023/05/31 05:20:50;;;;;;;10.38;9.38;;;23.80;68.70;;;;;;4803525;54;21011;-34
2023/05/31 05:25:51;;;;;;;9.32;8.43;;;23.80;68.70;;;;;;4801737;54;21082;-38
2023/05/31 05:30:53;;;;;;;9.55;8.65;;;23.80;68.60;;;;;;4886567;54;21059;-33
2023/05/31 05:35:54;;;;;;;9.23;8.27;;;23.80;68.60;;;;;;4873490;54;21525;-35
2023/05/31 05:40:55;;;;;;;9.23;8.27;;;23.80;68.60;;;;;;4833738;54;21016;-36
2023/05/31 05:45:55;;;;;;;9.02;8.18;;;23.80;68.60;;;;;;4829221;54;21060;-36
2023/05/31 05:50:56;;;;;;;9.55;8.65;;;23.80;68.50;;;;;;4804759;54;21059;-36
2023/05/31 05:55:57;;;;;;;9.20;8.25;;;23.80;68.50;;;;;;4814553;54;21561;-31
2023/05/31 06:00:59;;;;;;;8.73;7.93;;;23.80;68.50;;;;;;4893576;54;21073;-35
2023/05/31 06:06:00;;;;;;;9.25;8.35;;;23.80;68.50;;;;;;4803694;54;21478;-33
2023/05/31 06:11:00;;;;;;;8.95;8.07;;;23.80;68.50;;;;;;4818099;54;21019;-34
2023/05/31 06:16:04;;;;;;;9.50;8.60;;;23.80;68.50;;;;;;4806268;54;21036;-35
2023/05/31 06:21:05;;;;;;;9.10;8.20;;;23.80;68.40;;;;;;4835223;54;21542;-37
2023/05/31 06:26:06;;;;;;;8.38;7.68;;;23.80;68.40;;;;;;4807560;54;21087;-34
2023/05/31 06:31:08;;;;;;;9.93;8.90;;;23.80;68.40;;;;;;4819866;54;21008;-35
2023/05/31 06:36:10;;;;;;;9.63;8.63;;;23.80;68.40;;;;;;4853622;54;21517;-33
2023/05/31 06:41:10;;;;;;;9.23;8.32;;;23.80;68.30;;;;;;4827519;54;21079;-31
2023/05/31 06:46:12;;;;;;;9.27;8.38;;;23.80;68.30;;;;;;4872225;54;21063;-35
2023/05/31 06:51:13;;;;;;;9.88;8.75;;;23.80;68.30;;;;;;4821203;54;21482;-35
2023/05/31 06:56:14;;;;;;;9.23;8.25;;;23.80;68.30;;;;;;4808982;54;21060;-39
2023/05/31 07:01:15;;;;;;;10.30;9.30;;;23.80;68.20;;;;;;4823167;54;21004;-37
2023/05/31 07:06:15;;;;;;;11.52;9.35;;;23.80;68.20;;;;;;4802458;54;21024;-34
2023/05/31 07:11:16;;;;;;;12.10;9.43;;;23.90;67.90;;;;;;4794239;58;21473;-34
2023/05/31 07:16:17;;;;;;;11.48;9.10;;;23.80;68.00;;;;;;4800640;54;21067;-36
2023/05/31 07:21:18;;;;;;;13.43;10.05;;;23.90;67.60;;;;;;4800319;54;21505;-35
2023/05/31 07:26:19;;;;;;;12.07;9.65;;;23.90;68.50;;;;;;4833975;54;21498;-33
2023/05/31 07:31:20;;;;;;;10.90;9.45;;;23.90;67.90;;;;;;4795113;58;21019;-35
2023/05/31 07:36:24;;;;;;;14.25;10.05;;;23.90;67.80;;;;;;4820425;54;21051;-35
2023/05/31 07:41:25;;;;;;;11.95;9.18;;;23.90;67.80;;;;;;4839211;54;21383;-35
2023/05/31 07:46:26;;;;;;;13.98;9.80;;;23.90;67.80;;;;;;4796486;58;21494;-38
2023/05/31 07:51:30;;;;;;;9.70;8.57;;;23.90;67.80;;;;;;4830973;54;21003;-35
2023/05/31 07:56:31;;;;;;;11.98;9.63;;;23.90;67.70;;;;;;4871311;54;21028;-36
2023/05/31 08:01:33;;;;;;;12.07;9.88;;;23.90;67.70;;;;;;4847005;54;21032;-36
2023/05/31 08:06:34;;;;;;;13.30;9.23;;;23.90;67.70;;;;;;4817364;54;21478;-33
2023/05/31 08:11:35;;;;;;;10.18;9.05;;;23.90;67.70;;;;;;4814602;54;21104;-32
2023/05/31 08:16:36;;;;;;;12.02;10.40;;;23.90;67.70;;;;;;4852559;54;21021;-35
2023/05/31 08:21:38;;;;;;;14.95;10.35;;;23.90;67.70;;;;;;4819829;54;21479;-33
2023/05/31 08:26:39;;;;;;;12.55;9.60;;;23.90;67.60;;;;;;4796333;58;21482;-34
2023/05/31 08:31:40;;;;;;;12.40;10.70;;;23.90;67.60;;;;;;4818726;54;21004;-33
2023/05/31 08:36:41;;;;;;;11.93;9.80;;;23.90;68.20;;;;;;4800380;54;21501;-33
2023/05/31 08:42:13;;;;;;;11.93;9.93;;;23.90;67.60;;;;;;4795973;58;21071;-33
2023/05/31 08:47:28;;;;;;;13.10;10.60;;;23.90;67.60;;;;;;4925201;54;21498;-35
2023/05/31 08:52:32;;;;;;;11.05;9.93;;;23.90;67.60;;;;;;4825787;54;21031;-35
2023/05/31 08:57:36;;;;;;;11.93;10.30;;;23.90;67.50;;;;;;4863112;54;21003;-35
2023/05/31 09:02:41;;;;;;;12.65;10.30;;;23.90;67.50;;;;;;4795144;58;21042;-37
2023/05/31 09:07:42;;;;;;;11.27;10.18;;;23.90;67.50;;;;;;4795998;58;21068;-38
2023/05/31 09:12:43;;;;;;;13.18;10.63;;;23.90;67.50;;;;;;4905149;54;21000;-32
2023/05/31 09:17:45;;;;;;;13.20;11.07;;;24.00;67.50;;;;;;4805795;54;21083;-36
2023/05/31 09:22:52;;;;;;;13.25;11.52;;;24.00;67.50;;;;;;4867049;54;21474;-38
2023/05/31 09:27:59;;;;;;;12.37;10.30;;;24.00;67.50;;;;;;4830160;54;21462;-37
2023/05/31 09:32:59;;;;;;;;;;;24.00;67.50;;;;;;4844309;54;21488;-33
2023/05/31 09:38:07;;;;;;;12.23;10.85;;;24.00;67.50;;;;;;4832720;54;20767;-33
2023/05/31 09:43:08;;;;;;;13.15;11.55;;;24.00;67.50;;;;;;4796468;55;21075;-35
2023/05/31 09:48:11;;;;;;;12.57;10.85;;;24.00;67.40;;;;;;4793797;55;21003;-37
2023/05/31 09:53:17;;;;;;;13.13;11.75;;;24.00;67.40;;;;;;4797931;54;21481;-38
2023/05/31 09:58:31;;;;;;;12.70;11.35;;;24.00;67.30;;;;;;4796111;58;21510;-35
2023/05/31 10:03:34;;;;;;;12.18;10.88;;;24.00;67.40;;;;;;4824556;54;21578;-33
2023/05/31 10:08:37;;;;;;;13.30;11.30;;;24.00;67.30;;;;;;4815127;54;21048;-33
2023/05/31 10:13:39;;;;;;;12.75;11.45;;;24.00;67.30;;;;;;4805827;54;21083;-34
2023/05/31 10:18:46;;;;;;;14.05;11.57;;;24.00;67.30;;;;;;4808940;54;21064;-37
2023/05/31 10:24:08;;;;;;;15.35;12.48;;;24.00;67.30;;;;;;4839298;54;21501;-33
2023/05/31 10:29:21;;;;;;;21.55;18.80;;;24.00;67.30;;;;;;4824318;54;21095;-33
2023/05/31 10:34:24;;;;;;;44.30;31.60;;;24.00;66.70;;;;;;4794995;54;21486;-34
2023/05/31 10:39:39;;;;;;;56.60;36.03;;;23.90;64.70;;;;;;4794200;58;21024;-33
2023/05/31 10:44:48;;;;;;;49.95;34.00;;;23.90;63.60;;;;;;4796815;54;21103;-36
2023/05/31 10:49:52;;;;;;;43.78;29.00;;;23.80;63.60;;;;;;4844919;54;21500;-33
2023/05/31 10:55:14;;;;;;;42.58;30.25;;;23.80;63.00;;;;;;4806541;54;21083;-33
2023/05/31 11:00:19;;;;;;;48.35;33.53;;;23.80;63.60;;;;;;4794572;58;21095;-39
2023/05/31 11:05:26;;;;;;;44.30;33.58;;;23.90;63.10;;;;;;4801097;54;21020;-30
2023/05/31 11:10:29;;;;;;;50.03;34.47;;;23.90;63.60;;;;;;4811610;54;21015;-34
2023/05/31 11:15:41;;;;;;;45.95;33.80;;;23.90;64.10;;;;;;4798019;54;21473;-33
2023/05/31 11:20:42;;;;;;;48.58;38.35;;;23.90;63.80;;;;;;4828318;54;21051;-35
2023/05/31 11:25:43;;;;;;;51.67;37.75;;;23.90;63.40;;;;;;4865709;54;21458;-35
2023/05/31 11:30:46;;;;;;;45.55;36.75;;;23.90;63.70;;;;;;4794226;58;21075;-35
2023/05/31 11:35:47;;;;;;;42.03;34.25;;;23.90;63.50;;;;;;4873438;54;21554;-36
2023/05/31 11:40:47;;;;;;;37.35;30.83;;;23.90;61.70;;;;;;4832571;54;21020;-34
2023/05/31 11:45:52;;;;;;;36.67;29.30;;;23.90;62.90;;;;;;4794526;55;21027;-32
2023/05/31 11:50:55;;;;;;;35.80;29.95;;;24.00;63.10;;;;;;4835476;54;21051;-33
2023/05/31 11:55:58;;;;;;;34.70;28.77;;;24.10;63.50;;;;;;4877463;54;21422;-31
2023/05/31 12:00:59;;;;;;;37.95;30.83;;;24.10;63.60;;;;;;4865118;54;21526;-33
2023/05/31 12:06:00;;;;;;;36.42;29.52;;;24.20;63.80;;;;;;4818950;54;21000;-38
2023/05/31 12:11:03;;;;;;;37.10;28.77;;;24.20;64.00;;;;;;4793997;58;21101;-33
2023/05/31 12:16:05;;;;;;;34.28;28.23;;;24.20;64.10;;;;;;4794176;58;21526;-34
2023/05/31 12:21:15;;;;;;;34.33;28.15;;;24.20;64.40;;;;;;4824453;54;21534;-35
2023/05/31 12:26:16;;;;;;;31.40;25.77;;;24.30;64.60;;;;;;4808992;54;21510;-32
2023/05/31 12:31:25;;;;;;;35.17;26.70;;;24.30;64.60;;;;;;4802990;54;21226;-34
2023/05/31 12:36:26;;;;;;;32.05;25.92;;;24.30;65.00;;;;;;4796220;54;21521;-33
2023/05/31 12:41:27;;;;;;;30.75;26.37;;;24.30;65.00;;;;;;4787025;54;32095;-31
2023/05/31 12:46:28;;;;;;;31.35;26.60;;;24.30;65.20;;;;;;4673495;56;21066;-33
2023/05/31 12:51:30;;;;;;;28.27;24.65;;;24.30;65.30;;;;;;4659989;60;21052;-33
2023/05/31 12:56:31;;;;;;;30.35;25.52;;;24.30;65.50;;;;;;4661080;56;21039;-34
2023/05/31 13:01:32;;;;;;;28.77;24.92;;;24.30;65.60;;;;;;4660182;60;21545;-35
2023/05/31 13:06:33;;;;;;;29.70;23.92;;;24.40;65.80;;;;;;4659506;60;21062;-34
2023/05/31 13:11:37;;;;;;;28.08;25.15;;;24.40;65.80;;;;;;4678814;56;21020;-31
2023/05/31 13:16:40;;;;;;;31.37;23.67;;;24.40;65.80;;;;;;4684442;56;21059;-31
2023/05/31 13:21:41;;;;;;;27.85;24.63;;;24.40;66.00;;;;;;4678745;56;21960;-34
2023/05/31 13:26:43;;;;;;;28.10;25.02;;;24.40;66.20;;;;;;4707581;56;21023;-34
2023/05/31 13:31:45;;;;;;;29.75;24.25;;;24.40;66.20;;;;;;4660448;56;22191;-37
2023/05/31 13:36:46;;;;;;;30.50;26.05;;;24.40;66.40;;;;;;4684939;56;21521;-35
2023/05/31 13:41:50;;;;;;;28.77;24.05;;;24.40;66.70;;;;;;4668506;56;21610;-32
2023/05/31 13:46:50;;;;;;;25.75;22.98;;;24.40;66.70;;;;;;4660750;60;21058;-35
2023/05/31 13:51:51;;;;;;;26.17;23.33;;;24.40;66.80;;;;;;4684951;56;21039;-32
2023/05/31 13:56:52;;;;;;;27.17;23.60;;;24.50;67.10;;;;;;4661236;56;21397;-31
2023/05/31 14:01:56;;;;;;;28.05;23.67;;;24.40;67.20;;;;;;4659810;56;21011;-36
2023/05/31 14:06:57;;;;;;;26.58;23.40;;;24.50;67.90;;;;;;4668261;56;21052;-37
2023/05/31 14:11:58;;;;;;;27.25;23.90;;;24.40;67.30;;;;;;4660418;60;21467;-35
2023/05/31 14:16:59;;;;;;;27.73;22.75;;;24.40;67.40;;;;;;4662365;56;21047;-36
2023/05/31 14:22:00;;;;;;;27.58;22.70;;;24.40;67.70;;;;;;4660632;56;21497;-36
2023/05/31 14:27:02;;;;;;;29.77;24.33;;;24.40;67.60;;;;;;4722878;56;21095;-34
2023/05/31 14:32:03;;;;;;;27.37;23.40;;;24.40;67.60;;;;;;4662124;56;21558;-35
2023/05/31 14:37:07;;;;;;;26.25;22.55;;;24.30;67.80;;;;;;4675649;56;21052;-34
2023/05/31 14:42:08;;;;;;;27.02;23.73;;;24.30;67.90;;;;;;4681792;56;21465;-34
2023/05/31 14:47:09;;;;;;;26.90;23.35;;;24.20;68.00;;;;;;4674935;56;21087;-34
2023/05/31 14:52:10;;;;;;;26.45;23.52;;;24.20;68.00;;;;;;4661237;57;21131;-35
2023/05/31 14:57:11;;;;;;;28.00;23.73;;;24.20;68.00;;;;;;4716054;56;21024;-35
2023/05/31 15:02:12;;;;;;;27.13;22.13;;;24.20;68.00;;;;;;4691157;56;21044;-36
2023/05/31 15:07:13;;;;;;;25.40;21.98;;;24.10;68.00;;;;;;4670530;56;21083;-36
2023/05/31 15:12:14;;;;;;;25.17;22.13;;;24.10;68.00;;;;;;4713862;56;21051;-33
2023/05/31 15:17:15;;;;;;;25.00;22.35;;;24.10;68.00;;;;;;4725150;56;21075;-37
2023/05/31 15:22:15;;;;;;;25.27;21.37;;;24.10;67.90;;;;;;4703332;56;21028;-33
2023/05/31 15:27:16;;;;;;;24.87;22.20;;;24.10;67.90;;;;;;4662011;60;21011;-36
2023/05/31 15:32:17;;;;;;;27.15;23.55;;;24.10;67.90;;;;;;4662675;56;21530;-36
2023/05/31 15:37:18;;;;;;;25.33;22.62;;;24.10;67.90;;;;;;4666722;56;21040;-37
2023/05/31 15:42:19;;;;;;;27.37;22.55;;;24.10;67.90;;;;;;4661405;60;21486;-36
2023/05/31 15:47:20;;;;;;;24.87;22.17;;;24.10;68.00;;;;;;4691056;56;21103;-37
2023/05/31 15:52:20;;;;;;;24.65;22.02;;;24.10;67.90;;;;;;4662375;60;21538;-33
2023/05/31 15:57:21;;;;;;;24.23;21.75;;;24.10;67.90;;;;;;4701290;56;21534;-34
2023/05/31 16:02:23;;;;;;;26.30;22.70;;;24.10;67.90;;;;;;4699808;56;21047;-35
2023/05/31 16:07:24;;;;;;;23.98;21.42;;;24.10;67.90;;;;;;4714411;56;21104;-36
2023/05/31 16:12:25;;;;;;;23.75;20.67;;;24.10;67.90;;;;;;4700817;56;21470;-35
2023/05/31 16:17:26;;;;;;;24.02;21.52;;;24.10;67.90;;;;;;4662442;56;21099;-34
2023/05/31 16:22:27;;;;;;;23.90;21.35;;;24.10;67.80;;;;;;4690687;56;21084;-36
2023/05/31 16:27:28;;;;;;;26.30;21.42;;;24.10;67.90;;;;;;4661914;60;21068;-36
2023/05/31 16:32:29;;;;;;;27.17;22.87;;;24.10;68.60;;;;;;4684921;56;21099;-33
2023/05/31 16:37:29;;;;;;;24.73;22.08;;;24.10;67.90;;;;;;4692361;56;21102;-34
2023/05/31 16:42:30;;;;;;;24.05;21.52;;;24.10;67.90;;;;;;4661683;60;21107;-38
2023/05/31 16:47:31;;;;;;;24.70;22.10;;;24.10;67.90;;;;;;4697647;56;21083;-38
2023/05/31 16:52:32;;;;;;;23.40;20.90;;;24.10;67.90;;;;;;4664411;56;21055;-36
2023/05/31 16:57:33;;;;;;;22.33;20.02;;;24.00;67.90;;;;;;4672493;56;21036;-36
2023/05/31 17:02:34;;;;;;;24.35;21.73;;;24.00;67.80;;;;;;4661056;57;21119;-33
2023/05/31 17:07:34;;;;;;;24.10;21.42;;;24.10;67.70;;;;;;4669799;56;21040;-36
2023/05/31 17:12:37;;;;;;;22.60;20.30;;;24.10;67.70;;;;;;4707846;56;21063;-35
2023/05/31 17:17:41;;;;;;;24.17;20.67;;;24.10;67.70;;;;;;4664332;56;21513;-36
2023/05/31 17:22:42;;;;;;;23.75;21.25;;;24.10;68.40;;;;;;4661240;60;21652;-34
2023/05/31 17:27:43;;;;;;;22.55;20.25;;;24.10;67.70;;;;;;4745473;56;21455;-35
2023/05/31 17:32:45;;;;;;;23.67;21.17;;;24.10;67.80;;;;;;4742788;55;21027;-32
2023/05/31 17:37:46;;;;;;;23.85;21.45;;;24.10;67.70;;;;;;4663244;56;21087;-36
2023/05/31 17:42:49;;;;;;;24.23;21.70;;;24.10;67.80;;;;;;4734126;55;21478;-35
2023/05/31 17:47:52;;;;;;;23.38;20.95;;;24.10;67.70;;;;;;4715749;56;21552;-34
2023/05/31 17:52:53;;;;;;;24.27;21.67;;;24.00;67.80;;;;;;4737734;56;21032;-35
2023/05/31 17:57:54;;;;;;;23.10;19.42;;;24.10;67.60;;;;;;4661797;60;21039;-35
2023/05/31 18:02:55;;;;;;;23.00;20.60;;;24.10;67.60;;;;;;4663927;56;21059;-33
2023/05/31 18:07:56;;;;;;;23.05;20.55;;;24.20;67.50;;;;;;4705619;56;21060;-33
2023/05/31 18:12:57;;;;;;;22.77;20.15;;;24.20;67.70;;;;;;4672270;56;21597;-34
2023/05/31 18:17:57;;;;;;;23.62;21.10;;;24.10;67.50;;;;;;4666362;56;21556;-35
2023/05/31 18:22:58;;;;;;;21.58;19.27;;;24.10;67.70;;;;;;4715412;56;21047;-34
2023/05/31 18:27:59;;;;;;;22.73;20.30;;;24.10;67.60;;;;;;4694338;56;21533;-34
2023/05/31 18:33:00;;;;;;;22.52;20.08;;;24.10;67.40;;;;;;4664804;56;21099;-32
2023/05/31 18:38:02;;;;;;;23.00;20.65;;;24.10;67.60;;;;;;4666511;56;21020;-34
2023/05/31 18:43:03;;;;;;;21.95;19.65;;;24.00;68.40;;;;;;4661226;60;21092;-34
2023/05/31 18:48:06;;;;;;;23.23;20.92;;;24.10;67.80;;;;;;4665026;56;21015;-35
2023/05/31 18:53:07;;;;;;;20.55;18.00;;;24.10;67.60;;;;;;4680613;56;21557;-35
2023/05/31 18:58:08;;;;;;;22.52;20.23;;;24.10;67.50;;;;;;4687770;56;21107;-34
2023/05/31 19:03:09;;;;;;;22.37;19.98;;;24.10;67.40;;;;;;4678474;56;21656;-33
2023/05/31 19:08:10;;;;;;;21.70;19.52;;;24.10;67.50;;;;;;4669698;56;21528;-37
2023/05/31 19:13:10;;;;;;;20.42;18.27;;;24.10;67.50;;;;;;4672956;55;21007;-36
2023/05/31 19:18:11;;;;;;;22.23;20.02;;;24.10;67.70;;;;;;4682037;56;21565;-34
2023/05/31 19:23:12;;;;;;;22.02;19.60;;;24.10;67.60;;;;;;4728616;55;21007;-32
2023/05/31 19:28:13;;;;;;;20.48;18.37;;;24.00;67.70;;;;;;4670889;56;21056;-32
2023/05/31 19:33:18;;;;;;;20.45;18.25;;;24.00;67.80;;;;;;4663463;56;22002;-36
2023/05/31 19:38:19;;;;;;;22.10;19.80;;;24.00;67.80;;;;;;4736657;56;21521;-36
2023/05/31 19:43:19;;;;;;;21.62;19.42;;;24.00;67.80;;;;;;4665216;56;21043;-34
2023/05/31 19:48:20;;;;;;;20.35;18.25;;;24.00;67.80;;;;;;4681483;55;21099;-32
2023/05/31 19:53:21;;;;;;;20.60;18.50;;;24.00;67.90;;;;;;4673765;56;21106;-33
2023/05/31 19:58:23;;;;;;;20.23;18.12;;;24.00;68.00;;;;;;4661984;60;21015;-31
2023/05/31 20:03:24;;;;;;;19.65;17.65;;;24.00;67.70;;;;;;4681409;56;21550;-37
2023/05/31 20:08:25;;;;;;;21.35;19.15;;;24.00;67.80;;;;;;4673019;56;21095;-35
2023/05/31 20:13:29;;;;;;;19.37;17.45;;;24.00;68.00;;;;;;4662007;60;21596;-34
2023/05/31 20:18:29;;;;;;;20.50;18.27;;;24.00;67.90;;;;;;4683672;56;21003;-35
2023/05/31 20:23:30;;;;;;;19.35;17.35;;;24.00;67.90;;;;;;4837999;56;21115;-35
2023/05/31 20:28:32;;;;;;;19.85;17.85;;;24.00;67.90;;;;;;4734687;56;21027;-32
2023/05/31 20:33:33;;;;;;;19.77;17.67;;;24.00;67.90;;;;;;4774747;56;21051;-35
2023/05/31 20:38:35;;;;;;;19.67;17.65;;;24.00;68.00;;;;;;4668108;55;21557;-33
2023/05/31 20:43:36;;;;;;;18.92;16.92;;;24.00;68.00;;;;;;4735143;56;21096;-32
2023/05/31 20:48:37;;;;;;;18.95;16.90;;;24.00;67.70;;;;;;4662762;60;21490;-35
2023/05/31 20:53:38;;;;;;;20.48;17.55;;;24.00;67.80;;;;;;4666799;55;21036;-36
2023/05/31 20:58:39;;;;;;;20.17;18.08;;;24.00;67.90;;;;;;4662170;60;21514;-38
2023/05/31 21:03:40;;;;;;;19.83;17.23;;;24.00;68.00;;;;;;4662801;56;21518;-35
2023/05/31 21:08:41;;;;;;;18.65;16.77;;;24.00;68.00;;;;;;4689406;56;22230;-34
2023/05/31 21:13:42;;;;;;;17.77;15.98;;;24.00;68.00;;;;;;4691580;56;21119;-37
2023/05/31 21:18:43;;;;;;;19.05;17.05;;;24.00;68.00;;;;;;4662212;60;21502;-36
2023/05/31 21:23:44;;;;;;;18.62;16.67;;;24.00;68.00;;;;;;4673627;56;21597;-33
2023/05/31 21:28:45;;;;;;;17.83;16.08;;;24.00;68.00;;;;;;4688306;56;21103;-36
2023/05/31 21:33:46;;;;;;;18.85;16.52;;;24.00;68.00;;;;;;4661874;60;21043;-34
2023/05/31 21:38:47;;;;;;;17.65;15.82;;;24.00;68.00;;;;;;4696765;56;21521;-36
2023/05/31 21:43:48;;;;;;;19.60;17.58;;;24.00;68.00;;;;;;4662728;56;21578;-34
2023/05/31 21:48:50;;;;;;;17.65;15.90;;;24.00;68.60;;;;;;4662255;60;21023;-36
2023/05/31 21:53:50;;;;;;;18.20;16.40;;;24.00;68.70;;;;;;4696776;56;21490;-34
2023/05/31 21:58:51;;;;;;;17.10;15.30;;;24.00;68.10;;;;;;4662024;59;21067;-37
2023/05/31 22:03:52;;;;;;;18.65;16.48;;;23.90;68.00;;;;;;4663410;56;21594;-35
2023/05/31 22:08:53;;;;;;;18.42;16.58;;;24.00;68.10;;;;;;4696949;56;21031;-37
2023/05/31 22:13:54;;;;;;;17.25;15.55;;;24.00;68.10;;;;;;4662013;60;21492;-31
2023/05/31 22:18:57;;;;;;;16.70;14.98;;;24.00;68.10;;;;;;4723600;56;21641;-35
2023/05/31 22:23:58;;;;;;;17.52;15.63;;;24.00;68.10;;;;;;4786045;56;21474;-35
2023/05/31 22:28:58;;;;;;;15.93;14.23;;;24.00;68.10;;;;;;4695190;56;21092;-33
2023/05/31 22:33:59;;;;;;;17.08;15.27;;;24.00;68.10;;;;;;4691955;56;21165;-38
2023/05/31 22:39:00;;;;;;;16.30;14.70;;;24.00;68.10;;;;;;4747249;56;21083;-33
2023/05/31 22:44:02;;;;;;;16.90;15.15;;;24.00;68.20;;;;;;4672510;56;21012;-35
2023/05/31 22:49:03;;;;;;;16.62;14.93;;;24.00;68.20;;;;;;4663596;56;21589;-36
2023/05/31 22:54:04;;;;;;;16.50;14.85;;;24.00;68.20;;;;;;4661817;60;21083;-36
2023/05/31 22:59:05;;;;;;;16.90;15.20;;;24.00;68.20;;;;;;4662219;60;21529;-38
2023/05/31 23:04:06;;;;;;;16.92;15.23;;;24.00;68.20;;;;;;4671579;56;21019;-33
2023/05/31 23:09:09;;;;;;;16.58;14.93;;;23.90;68.10;;;;;;4663632;56;21072;-32
2023/05/31 23:14:10;;;;;;;17.48;15.73;;;24.00;68.20;;;;;;4679764;56;21584;-34
2023/05/31 23:19:13;;;;;;;17.02;14.93;;;23.90;68.10;;;;;;4675923;56;21083;-33
2023/05/31 23:24:14;;;;;;;16.92;15.23;;;23.90;68.80;;;;;;4723979;56;21566;-36
2023/05/31 23:29:15;;;;;;;14.85;13.40;;;23.90;68.10;;;;;;4813894;56;21489;-32
2023/05/31 23:34:16;;;;;;;16.75;15.02;;;23.90;68.10;;;;;;4704830;56;21111;-34
2023/05/31 23:39:17;;;;;;;16.42;14.75;;;24.00;68.20;;;;;;4689702;56;21106;-32
2023/05/31 23:44:18;;;;;;;16.30;14.73;;;24.00;68.20;;;;;;4774936;56;21456;-35
2023/05/31 23:49:18;;;;;;;15.38;13.85;;;24.00;68.20;;;;;;4674214;55;21549;-32
2023/05/31 23:54:19;;;;;;;16.52;14.82;;;23.90;68.20;;;;;;4691985;56;21472;-33
2023/05/31 23:59:20;;;;;;;16.75;14.85;;;24.00;68.20;;;;;;4676450;56;21498;-35
